Startpagina
METAR-TAF:

METAR-TAF

Vliegvelden :

Mar del Plata, Argentinië

Aeropuerto Internacional Astor Piazolla

breedte: 37-56S, lengte: 057-35W, hoogte: 18 m

Actueel weer

Temperatuur
Druk

METAR: SAZM 25050Z NIL

Tijdstip: 03:51 (06:51 UTC)

Verwachting

Dit bericht is 1 uur en het 51 minuten geleden gemaakt, om 05:00 UTC
Verwachting geldig van 25 om 06 UTC tot 26 om 06 UTC
Wind 3 kt uit variabele richting
Zicht: 8000 m
Wijzigt naar
van 25 om 06 UTC tot 25 om 09 UTC
Zicht: 3000 m
nevel
Kans 30%
van 25 om 09 UTC tot 25 om 12 UTC
Zicht: 0500 m
Gebroken wolken op 500 ft
mist
Wijzigt naar
van 25 om 12 UTC tot 25 om 15 UTC
Wind 10 kt uit het noordoosten
Zicht 10 km of meer
Verspreide wolken op 2000 ft

TAF: SAZM 250500Z 2506/2606 VRB03KT 8000 NSC TX13/2518Z TN03/2510Z BECMG 2506/2509 3000 BR NSC PROB30 2509/2512 0500 FG BKN005 BECMG 2512/2515 05010KT 9999 SCT020

Waarnemingen en weersverwachtingen van meer dan 4000 vliegvelden (METAR en TAF).

De beschikbare stations zijn de gele en rode punten op de kaart.

Ga met uw muis naar het station om de naam te zien.

Klik dan om waarnemingen en weersverwachtingen te zien.

kaart wijzigen: klik op de groene knoppen met een zwart kruis om in te zoomen, op de groene knop met een streepje om uit te zoomen of op de groene pijlen voor aangrenzende kaarten.


METAR-TAF: